Sudlersville, Maryland
Current Conditions -  °F | °C
As of 8:06 PM on Wednesday 22 Oct 2014 (Local Time) from KDOV Reporting Station
Light Rain Light Rain  
Wind Chill: 54°   Ceiling: 2000
Heat Index: 54°   Visibility: 10mi
Dew Point: 54°   Wind: 18mph
Humidity: 100%   Direction: 320°NW
Pressure: 29.81"   Gusts: 25mph
Location:  39.19°N, 75.86°W
Report Text: KDOV 230006Z AUTO 32016G22KT 10SM -RA OVC020 12/12 A2981 RMK AO2 OVC V BKN
Loading
Personal Weather Stations






























Interactive Weather Map
Tropical Storm Tracking
New forecast layout! Learn more

10-Day Weather Forecast

Advertisements
Track Severe Weather on mobile